SBSP/CGH METAR and TAF weather

Enter ICAO airport designator
Station Type Date Time Source
SBSP METAR 2020/09/23 04:00 UTC NOAA

SBSP 230400Z AUTO 14008KT 9999 // OVC006/// 14/12 Q1026


Station Type Date Time Source
SBSP Decoded METAR 2020/09/23 04:00 UTC NOAA

Sao Paulo/Congonhas Aeroporto, Brazil (SBSP) 23-37S 046-39W 802M
Sep 23, 2020 - 12:00 AM EDT / 2020.09.23 0400 UTC
Wind: from the SE (140 degrees) at 9 MPH (8 KT):0
Visibility: greater than 7 mile(s):0
Sky conditions: overcast
Temperature: 57 F (14 C)
Dew Point: 53 F (12 C)
Relative Humidity: 87%
Pressure (altimeter): 30.30 in. Hg (1026 hPa)
ob: SBSP 230400Z AUTO 14008KT 9999 // OVC006/// 14/12 Q1026
cycle: 4

Station Type Date Time Source
SBSP TAF 2020/09/23 06:12 UTC NOAA

TAF SBSP 230200Z 2306/2318 17010KT 8000 SCT005 OVC006 TN12/2309Z TX19/2317Z
TEMPO 2306/2312 15005KT 4000 DZ BR BKN004 OVC008
BECMG 2312/2314 SCT013 BKN017
BECMG 2314/2316 15005KT
RMK PGD

Example: see airport list